Time;durP1;ratioP1;P1;durP2;ratioP2;P2;SDS_P1;SDS_P2;PMS_P1;PMS_P2;Temp;Humidity;BMP_temperature;BMP_pressure;BME280_temperature;BME280_humidity;BME280_pressure;Samples;Min_cycle;Max_cycle;Signal;HPM_P1;HPM_P2
2022/03/14 00:01:49;;;;;;;19.60;10.32;;;11.40;53.70;;;;;;4934770;29;20031;-73
2022/03/14 00:04:15;;;;;;;21.52;11.50;;;11.30;54.10;;;;;;4935343;29;20028;-76
2022/03/14 00:06:42;;;;;;;24.70;11.93;;;11.30;54.20;;;;;;4923778;29;20493;-75
2022/03/14 00:09:08;;;;;;;24.95;11.90;;;11.30;54.50;;;;;;4917617;29;20035;-78
2022/03/14 00:11:35;;;;;;;25.52;12.23;;;11.30;54.90;;;;;;4935438;29;20038;-78
2022/03/14 00:14:05;;;;;;;25.10;12.63;;;11.30;54.90;;;;;;4917421;29;20027;-75
2022/03/14 00:16:39;;;;;;;25.02;13.02;;;11.30;55.00;;;;;;4935118;29;20024;-77
2022/03/14 00:19:06;;;;;;;24.40;13.18;;;11.30;55.10;;;;;;4914495;29;20036;-77
2022/03/14 00:21:38;;;;;;;23.98;12.10;;;11.30;55.10;;;;;;4918222;29;20470;-75
2022/03/14 00:24:04;;;;;;;29.20;12.95;;;11.30;55.20;;;;;;4917318;29;20027;-76
2022/03/14 00:26:30;;;;;;;26.52;12.85;;;11.30;55.00;;;;;;4918195;29;20211;-75
2022/03/14 00:28:56;;;;;;;24.83;12.38;;;11.30;55.10;;;;;;4917350;29;20497;-75
2022/03/14 00:31:22;;;;;;;24.70;12.60;;;11.40;57.50;;;;;;4918147;29;20114;-76
2022/03/14 00:33:48;;;;;;;25.33;12.27;;;11.40;57.70;;;;;;4916971;29;20032;-74
2022/03/14 00:36:13;;;;;;;22.20;12.13;;;11.40;56.70;;;;;;4917957;29;20079;-77
2022/03/14 00:38:40;;;;;;;22.25;11.73;;;11.40;56.80;;;;;;4934735;29;20354;-76
2022/03/14 00:41:07;;;;;;;23.10;11.50;;;11.40;57.00;;;;;;4917163;29;20031;-76
2022/03/14 00:43:34;;;;;;;20.10;9.60;;;11.40;57.70;;;;;;4917872;29;20103;-77
2022/03/14 00:46:00;;;;;;;15.23;8.35;;;11.40;64.30;;;;;;4917197;29;20389;-76
2022/03/14 00:48:26;;;;;;;15.55;7.28;;;11.50;71.00;;;;;;4934771;29;20495;-76
2022/03/14 00:50:52;;;;;;;12.13;6.97;;;11.50;81.70;;;;;;4933210;29;20512;-76
2022/03/14 00:53:18;;;;;;;8.95;5.70;;;11.40;94.70;;;;;;4952059;29;20055;-76
2022/03/14 00:55:44;;;;;;;10.43;5.90;;;11.50;97.50;;;;;;4944928;29;20027;-75
2022/03/14 00:58:10;;;;;;;8.80;5.15;;;11.50;98.70;;;;;;4934211;29;20118;-76
2022/03/14 01:00:35;;;;;;;6.95;4.22;;;11.50;99.30;;;;;;4934539;29;20032;-76
2022/03/14 01:03:02;;;;;;;7.22;3.13;;;11.40;99.90;;;;;;4916965;29;20091;-77
2022/03/14 01:05:28;;;;;;;6.88;3.10;;;11.40;99.90;;;;;;4917663;29;20023;-75
2022/03/14 01:07:54;;;;;;;3.45;2.17;;;11.40;99.90;;;;;;4935132;29;20024;-76
2022/03/14 01:10:20;;;;;;;2.55;1.70;;;11.30;99.90;;;;;;4921348;29;20028;-76
2022/03/14 01:12:46;;;;;;;2.63;1.80;;;11.20;99.90;;;;;;4920500;29;20035;-74
2022/03/14 01:15:12;;;;;;;3.15;1.40;;;11.10;99.90;;;;;;4937872;29;20019;-76
2022/03/14 01:17:40;;;;;;;3.20;1.65;;;11.00;99.90;;;;;;4921374;29;20032;-76
2022/03/14 01:20:07;;;;;;;1.83;1.10;;;11.00;99.90;;;;;;4920622;29;20028;-76
2022/03/14 01:22:33;;;;;;;1.25;0.70;;;10.90;99.90;;;;;;4921314;29;20032;-76
2022/03/14 01:24:58;;;;;;;1.17;0.88;;;10.80;99.90;;;;;;4920347;29;20028;-76
2022/03/14 01:27:24;;;;;;;2.88;0.73;;;10.70;99.90;;;;;;4938516;29;20024;-76
2022/03/14 01:29:49;;;;;;;2.08;0.70;;;10.60;99.90;;;;;;4920515;29;20031;-75
2022/03/14 01:32:15;;;;;;;1.92;0.68;;;10.60;99.90;;;;;;4938410;29;20036;-76
2022/03/14 01:34:41;;;;;;;0.68;0.50;;;10.50;99.90;;;;;;4920604;29;20043;-75
2022/03/14 01:37:07;;;;;;;2.45;0.70;;;10.30;99.90;;;;;;4920290;29;20052;-75
2022/03/14 01:39:32;;;;;;;1.20;0.65;;;10.20;99.90;;;;;;4921072;29;20135;-75
2022/03/14 01:41:58;;;;;;;1.20;0.47;;;10.10;99.90;;;;;;4937345;29;20050;-75
2022/03/14 01:44:25;;;;;;;0.63;0.50;;;10.10;99.90;;;;;;4920665;29;20028;-75
2022/03/14 01:46:52;;;;;;;1.10;0.57;;;10.00;99.90;;;;;;4936946;29;20055;-76
2022/03/14 01:49:18;;;;;;;0.93;0.40;;;9.90;99.90;;;;;;4937761;29;20035;-76
2022/03/14 01:51:44;;;;;;;1.10;0.40;;;9.90;99.90;;;;;;4920707;29;20164;-76
2022/03/14 01:54:10;;;;;;;1.73;0.50;;;9.90;99.90;;;;;;4936779;29;20110;-76
2022/03/14 01:56:39;;;;;;;1.70;0.40;;;9.90;99.90;;;;;;4937333;29;20111;-76
2022/03/14 01:59:05;;;;;;;0.80;0.50;;;9.90;99.90;;;;;;4916927;29;20038;-76
2022/03/14 02:01:31;;;;;;;0.45;0.40;;;9.80;99.90;;;;;;4908964;29;20043;-76
2022/03/14 02:03:58;;;;;;;0.85;0.47;;;9.80;99.90;;;;;;4936895;29;20032;-76
2022/03/14 02:06:23;;;;;;;0.77;0.40;;;9.70;99.90;;;;;;4920575;29;20381;-76
2022/03/14 02:08:49;;;;;;;1.17;0.57;;;9.70;99.90;;;;;;4919923;29;20038;-74
2022/03/14 02:11:14;;;;;;;1.80;0.47;;;9.60;99.90;;;;;;4920792;29;20028;-77
2022/03/14 02:13:40;;;;;;;0.82;0.52;;;9.60;99.90;;;;;;4920288;29;20115;-77
2022/03/14 02:16:06;;;;;;;1.15;0.50;;;9.60;99.90;;;;;;4919451;29;20028;-77
2022/03/14 02:18:31;;;;;;;0.57;0.32;;;9.60;99.90;;;;;;4920355;29;20467;-76
2022/03/14 02:20:57;;;;;;;1.77;0.38;;;9.60;99.90;;;;;;4919317;29;20390;-77
2022/03/14 02:23:23;;;;;;;0.63;0.40;;;9.50;99.90;;;;;;4937408;29;20028;-77
2022/03/14 02:25:53;;;;;;;0.40;0.30;;;9.50;99.90;;;;;;4936699;29;20027;-74
2022/03/14 02:28:21;;;;;;;0.40;0.30;;;9.50;99.90;;;;;;4937525;29;20031;-76
2022/03/14 02:30:47;;;;;;;0.77;0.50;;;9.60;99.90;;;;;;4919509;29;20540;-74
2022/03/14 02:33:13;;;;;;;0.20;0.10;;;9.60;99.90;;;;;;4919751;29;20070;-76
2022/03/14 02:35:42;;;;;;;0.63;0.30;;;9.40;99.90;;;;;;4936536;29;20381;-74
2022/03/14 02:38:16;;;;;;;0.40;0.32;;;9.50;99.90;;;;;;4935128;29;20027;-75
2022/03/14 02:40:43;;;;;;;0.47;0.20;;;9.50;99.90;;;;;;4936453;29;20032;-75
2022/03/14 02:43:09;;;;;;;0.30;0.20;;;9.50;99.90;;;;;;4936043;29;20016;-75
2022/03/14 02:45:35;;;;;;;0.47;0.20;;;9.50;99.90;;;;;;4936299;29;20058;-75
2022/03/14 02:48:01;;;;;;;0.30;0.20;;;9.50;99.90;;;;;;4936076;29;20028;-77
2022/03/14 02:50:29;;;;;;;0.17;0.17;;;9.50;99.90;;;;;;4936391;29;20051;-76
2022/03/14 02:52:54;;;;;;;0.68;0.17;;;9.50;99.90;;;;;;4935893;29;20024;-77
2022/03/14 02:55:23;;;;;;;0.32;0.20;;;9.50;99.90;;;;;;4919559;29;20480;-77
2022/03/14 02:57:48;;;;;;;0.20;0.10;;;9.50;99.90;;;;;;4919185;29;20114;-74
2022/03/14 03:00:14;;;;;;;0.30;0.20;;;9.50;99.90;;;;;;4919248;29;20068;-75
2022/03/14 03:02:42;;;;;;;0.20;0.10;;;9.50;99.90;;;;;;4918636;29;20071;-75
2022/03/14 03:05:08;;;;;;;0.35;0.20;;;9.50;99.90;;;;;;4935623;29;20047;-75
2022/03/14 03:07:34;;;;;;;0.40;0.20;;;9.40;99.90;;;;;;4919284;29;20087;-75
2022/03/14 03:10:01;;;;;;;0.40;0.20;;;9.50;99.90;;;;;;4918269;29;20031;-75
2022/03/14 03:12:28;;;;;;;0.20;0.20;;;9.40;99.90;;;;;;4936216;29;20028;-75
2022/03/14 03:14:54;;;;;;;1.45;0.20;;;9.40;99.90;;;;;;4934819;29;20019;-75
2022/03/14 03:17:21;;;;;;;0.30;0.10;;;9.40;99.90;;;;;;4936139;29;20083;-76
2022/03/14 03:19:46;;;;;;;0.20;0.15;;;9.30;99.90;;;;;;4935606;29;20031;-74
2022/03/14 03:22:12;;;;;;;0.47;0.20;;;9.30;99.90;;;;;;4935513;29;20032;-75
2022/03/14 03:24:38;;;;;;;0.88;0.20;;;9.30;99.90;;;;;;4918680;29;20087;-75
2022/03/14 03:27:04;;;;;;;0.15;0.10;;;9.30;99.90;;;;;;4918089;29;20028;-75
2022/03/14 03:29:30;;;;;;;0.20;0.10;;;9.30;99.90;;;;;;4935939;29;20032;-75
2022/03/14 03:31:55;;;;;;;0.40;0.30;;;9.30;99.90;;;;;;4933739;29;20536;-75
2022/03/14 03:34:21;;;;;;;0.77;0.30;;;9.30;99.90;;;;;;4918080;29;20062;-75
2022/03/14 03:36:46;;;;;;;1.85;0.20;;;9.20;99.90;;;;;;4918221;29;20051;-73
2022/03/14 03:39:12;;;;;;;0.55;0.32;;;9.20;99.90;;;;;;4917925;29;20110;-75
2022/03/14 03:41:41;;;;;;;0.85;0.40;;;9.20;99.90;;;;;;4918077;29;20031;-75
2022/03/14 03:44:07;;;;;;;0.90;0.57;;;9.10;99.90;;;;;;4917879;29;20417;-75
2022/03/14 03:46:33;;;;;;;0.93;0.63;;;9.10;99.90;;;;;;4918562;29;20027;-75
2022/03/14 03:48:58;;;;;;;0.70;0.52;;;9.10;99.90;;;;;;4934810;29;20028;-75
2022/03/14 03:51:24;;;;;;;0.82;0.50;;;9.20;99.90;;;;;;4918503;29;20026;-75
2022/03/14 03:53:51;;;;;;;0.60;0.52;;;9.10;99.90;;;;;;4917327;29;20512;-75
2022/03/14 03:56:16;;;;;;;0.75;0.55;;;9.10;99.90;;;;;;4918387;29;20028;-75
2022/03/14 03:58:42;;;;;;;1.73;0.63;;;9.00;99.90;;;;;;4918464;29;20043;-75
2022/03/14 04:01:08;;;;;;;0.95;0.63;;;9.00;99.90;;;;;;4917379;29;20505;-75
2022/03/14 04:03:35;;;;;;;1.38;0.60;;;9.00;99.90;;;;;;4918582;29;20465;-75
2022/03/14 04:06:01;;;;;;;0.98;0.60;;;9.10;99.90;;;;;;4934655;29;20020;-75
2022/03/14 04:08:30;;;;;;;2.60;0.47;;;9.10;99.90;;;;;;4918494;29;20059;-75
2022/03/14 04:10:57;;;;;;;1.27;0.50;;;9.00;99.90;;;;;;4917407;29;20469;-75
2022/03/14 04:13:29;;;;;;;0.75;0.55;;;9.00;99.90;;;;;;4918285;29;20075;-75
2022/03/14 04:15:56;;;;;;;1.13;0.63;;;9.00;99.90;;;;;;4934396;29;20031;-75
2022/03/14 04:18:24;;;;;;;2.63;0.50;;;9.00;99.90;;;;;;4918401;29;20290;-75
2022/03/14 04:20:50;;;;;;;0.80;0.50;;;9.00;99.90;;;;;;4934216;29;20024;-75
2022/03/14 04:23:17;;;;;;;1.48;0.70;;;9.00;99.90;;;;;;4918399;29;20362;-77
2022/03/14 04:25:45;;;;;;;1.80;0.80;;;9.10;99.90;;;;;;4918172;29;20024;-76
2022/03/14 04:28:12;;;;;;;2.15;0.70;;;9.10;99.90;;;;;;4917522;29;20114;-76
2022/03/14 04:30:38;;;;;;;1.35;0.70;;;9.10;99.90;;;;;;4917748;29;20465;-76
2022/03/14 04:33:04;;;;;;;1.52;0.70;;;9.10;99.90;;;;;;4916568;29;20035;-76
2022/03/14 04:35:30;;;;;;;1.38;0.90;;;9.10;99.90;;;;;;4917495;29;20024;-77
2022/03/14 04:37:55;;;;;;;2.72;0.70;;;9.10;99.90;;;;;;4917214;29;20031;-76
2022/03/14 04:40:21;;;;;;;1.60;0.65;;;9.10;99.90;;;;;;4918272;29;20070;-77
2022/03/14 04:42:47;;;;;;;0.95;0.75;;;9.20;99.90;;;;;;4936369;29;20587;-73
2022/03/14 04:45:12;;;;;;;1.10;0.80;;;9.10;99.90;;;;;;4923649;29;20028;-76
2022/03/14 04:47:38;;;;;;;1.58;0.70;;;9.20;99.90;;;;;;4924523;29;20028;-77
2022/03/14 04:50:05;;;;;;;0.85;0.63;;;9.10;99.90;;;;;;4923528;29;20482;-76
2022/03/14 04:52:31;;;;;;;1.33;0.68;;;9.10;99.90;;;;;;4924356;29;20046;-76
2022/03/14 04:54:57;;;;;;;1.17;0.65;;;9.10;99.90;;;;;;4923113;29;20027;-76
2022/03/14 04:57:24;;;;;;;0.68;0.50;;;9.10;99.90;;;;;;4924196;29;20422;-76
2022/03/14 04:59:49;;;;;;;1.30;0.68;;;9.10;99.90;;;;;;4940257;29;20119;-75
2022/03/14 05:02:23;;;;;;;1.27;0.70;;;9.10;99.90;;;;;;4923553;29;20122;-76
2022/03/14 05:04:52;;;;;;;0.63;0.47;;;9.00;99.90;;;;;;4923522;29;20485;-74
2022/03/14 05:07:18;;;;;;;1.08;0.60;;;9.00;99.90;;;;;;4941021;29;20134;-76
2022/03/14 05:09:44;;;;;;;1.77;0.70;;;9.10;99.90;;;;;;4924044;29;20545;-76
2022/03/14 05:12:11;;;;;;;2.65;0.68;;;9.00;99.90;;;;;;4923332;29;20123;-76
2022/03/14 05:14:38;;;;;;;1.30;0.73;;;9.00;99.90;;;;;;4940689;29;20027;-76
2022/03/14 05:17:04;;;;;;;1.90;0.80;;;9.00;99.90;;;;;;4907669;29;20037;-76
2022/03/14 05:19:29;;;;;;;2.80;1.00;;;9.00;99.90;;;;;;4923629;29;20556;-75
2022/03/14 05:21:55;;;;;;;1.67;0.70;;;9.00;99.90;;;;;;4923232;29;20059;-75
2022/03/14 05:24:21;;;;;;;1.42;0.70;;;9.00;99.90;;;;;;4940970;29;20372;-75
2022/03/14 05:26:51;;;;;;;3.05;0.82;;;9.00;99.90;;;;;;4940364;29;20036;-73
2022/03/14 05:29:17;;;;;;;1.58;0.77;;;9.00;99.90;;;;;;4924067;29;20428;-75
2022/03/14 05:31:42;;;;;;;1.33;0.82;;;9.00;99.90;;;;;;4923628;29;20028;-76
2022/03/14 05:34:08;;;;;;;0.98;0.68;;;9.00;99.90;;;;;;4922752;29;20035;-75
2022/03/14 05:36:34;;;;;;;1.73;0.80;;;9.00;99.90;;;;;;4940453;29;20028;-75
2022/03/14 05:38:59;;;;;;;1.42;0.93;;;9.00;99.90;;;;;;4922884;29;20041;-75
2022/03/14 05:41:26;;;;;;;1.55;0.90;;;9.00;99.90;;;;;;4940445;29;20055;-76
2022/03/14 05:43:51;;;;;;;1.65;0.90;;;8.90;99.90;;;;;;4922959;29;20385;-75
2022/03/14 05:46:17;;;;;;;1.42;1.05;;;9.00;99.90;;;;;;4922993;29;20028;-76
2022/03/14 05:48:42;;;;;;;1.27;0.85;;;9.00;99.90;;;;;;4923238;29;20066;-75
2022/03/14 05:51:08;;;;;;;1.73;0.95;;;8.90;99.90;;;;;;4922333;29;20516;-76
2022/03/14 05:53:34;;;;;;;2.13;0.80;;;9.00;99.90;;;;;;4939930;29;20034;-74
2022/03/14 05:56:00;;;;;;;2.08;0.70;;;9.00;99.90;;;;;;4918157;29;20024;-76
2022/03/14 05:58:26;;;;;;;2.25;0.65;;;9.00;99.90;;;;;;4937417;29;20031;-75
2022/03/14 06:00:52;;;;;;;4.95;0.80;;;8.90;99.90;;;;;;4936624;29;20083;-76
2022/03/14 06:03:20;;;;;;;1.88;0.60;;;9.00;99.90;;;;;;4920276;29;20036;-75
2022/03/14 06:05:48;;;;;;;1.42;0.50;;;8.90;99.90;;;;;;4937127;29;20054;-75
2022/03/14 06:08:14;;;;;;;1.70;0.70;;;8.90;99.90;;;;;;4920418;29;20028;-76
2022/03/14 06:10:40;;;;;;;2.08;0.80;;;8.90;99.90;;;;;;4937429;29;20090;-75
2022/03/14 06:13:07;;;;;;;2.13;0.80;;;8.90;99.90;;;;;;4919489;29;20024;-76
2022/03/14 06:15:32;;;;;;;2.85;0.70;;;8.90;99.90;;;;;;4936983;29;20024;-77
2022/03/14 06:17:58;;;;;;;0.88;0.52;;;8.90;99.90;;;;;;4936251;29;20032;-77
2022/03/14 06:20:24;;;;;;;3.53;0.63;;;8.90;99.90;;;;;;4920252;29;20039;-77
2022/03/14 06:22:49;;;;;;;0.90;0.50;;;8.90;99.90;;;;;;4936452;29;20027;-74
2022/03/14 06:25:17;;;;;;;0.82;0.50;;;8.90;99.90;;;;;;4920043;29;20024;-77
2022/03/14 06:27:43;;;;;;;3.08;0.70;;;8.80;99.90;;;;;;4937076;29;20028;-76
2022/03/14 06:30:09;;;;;;;3.17;0.57;;;8.80;99.90;;;;;;4919483;29;20842;-77
2022/03/14 06:32:37;;;;;;;2.28;0.50;;;8.80;99.90;;;;;;4918674;29;20477;-76
2022/03/14 06:35:08;;;;;;;1.58;0.63;;;8.80;99.90;;;;;;4920219;29;20020;-77
2022/03/14 06:37:34;;;;;;;2.72;0.60;;;8.80;99.90;;;;;;4925643;29;20032;-76
2022/03/14 06:40:01;;;;;;;3.03;0.60;;;8.80;99.90;;;;;;4919028;29;20525;-77
2022/03/14 06:42:28;;;;;;;2.33;0.45;;;8.80;99.90;;;;;;4936843;29;20095;-76
2022/03/14 06:44:53;;;;;;;2.30;0.55;;;8.80;99.90;;;;;;4936035;29;20050;-75
2022/03/14 06:47:21;;;;;;;3.65;0.70;;;8.80;99.90;;;;;;4937009;29;20517;-76
2022/03/14 06:49:47;;;;;;;2.90;0.80;;;8.80;99.90;;;;;;4918758;29;20055;-75
2022/03/14 06:52:13;;;;;;;4.82;0.57;;;8.80;99.90;;;;;;4918937;29;20036;-75
2022/03/14 06:54:39;;;;;;;5.18;0.40;;;8.80;99.90;;;;;;4918926;29;20499;-75
2022/03/14 06:57:06;;;;;;;5.18;0.60;;;8.80;99.90;;;;;;4918839;29;20472;-76
2022/03/14 06:59:32;;;;;;;1.73;0.50;;;8.80;99.90;;;;;;4936331;29;20098;-76
2022/03/14 07:01:58;;;;;;;2.90;0.60;;;8.80;99.90;;;;;;4918594;29;20544;-76
2022/03/14 07:04:23;;;;;;;2.38;0.50;;;8.80;99.90;;;;;;4919762;29;20118;-76
2022/03/14 07:06:49;;;;;;;5.40;0.80;;;8.90;99.90;;;;;;4935409;29;20028;-74
2022/03/14 07:09:15;;;;;;;1.23;0.82;;;8.90;99.90;;;;;;4919517;29;20487;-76
2022/03/14 07:11:40;;;;;;;2.05;0.65;;;8.90;99.90;;;;;;4919262;29;20481;-77
2022/03/14 07:14:07;;;;;;;3.05;0.63;;;8.90;99.90;;;;;;4918576;29;20090;-76
2022/03/14 07:16:32;;;;;;;2.45;0.50;;;9.00;99.90;;;;;;4919200;29;20030;-76
2022/03/14 07:18:58;;;;;;;4.78;0.57;;;9.00;99.90;;;;;;4935661;29;20380;-76
2022/03/14 07:21:28;;;;;;;2.30;0.45;;;9.00;99.90;;;;;;4936453;29;20027;-76
2022/03/14 07:23:55;;;;;;;2.63;0.60;;;9.10;99.90;;;;;;4918586;29;20035;-76
2022/03/14 07:26:20;;;;;;;1.02;0.40;;;9.10;99.90;;;;;;4918959;29;20114;-76
2022/03/14 07:28:48;;;;;;;1.02;0.40;;;9.10;99.90;;;;;;4935725;29;20114;-75
2022/03/14 07:31:14;;;;;;;2.42;0.50;;;9.10;99.90;;;;;;4918910;29;20031;-75
2022/03/14 07:33:40;;;;;;;4.70;0.50;;;9.00;99.90;;;;;;4935291;29;20046;-76
2022/03/14 07:36:05;;;;;;;2.42;0.60;;;9.00;99.90;;;;;;4917809;29;20496;-76
2022/03/14 07:38:31;;;;;;;2.60;0.73;;;9.00;99.90;;;;;;4918068;29;20489;-76
2022/03/14 07:40:57;;;;;;;3.17;0.50;;;9.00;99.90;;;;;;4934915;29;20030;-77
2022/03/14 07:43:22;;;;;;;2.30;0.52;;;9.00;99.90;;;;;;4935183;29;20031;-77
2022/03/14 07:45:48;;;;;;;3.85;0.50;;;9.00;99.90;;;;;;4935092;29;20123;-75
2022/03/14 07:48:14;;;;;;;0.93;0.55;;;9.00;99.90;;;;;;4918452;29;20030;-77
2022/03/14 07:50:41;;;;;;;2.40;0.50;;;9.00;99.90;;;;;;4918331;29;20401;-76
2022/03/14 07:53:07;;;;;;;4.65;0.75;;;9.00;99.90;;;;;;4934669;29;20027;-77
2022/03/14 07:55:33;;;;;;;4.30;1.00;;;9.00;99.90;;;;;;4918338;29;20023;-77
2022/03/14 07:57:58;;;;;;;3.35;1.05;;;9.00;99.90;;;;;;4917524;29;20380;-77
2022/03/14 08:00:24;;;;;;;2.00;0.60;;;9.10;99.90;;;;;;4934821;29;20143;-76
2022/03/14 08:02:50;;;;;;;1.65;0.60;;;9.00;99.90;;;;;;4917601;29;20457;-75
2022/03/14 08:05:18;;;;;;;4.68;0.88;;;9.10;99.90;;;;;;4918535;29;20024;-76
2022/03/14 08:07:46;;;;;;;3.80;0.80;;;9.10;99.90;;;;;;4918344;29;20461;-76
2022/03/14 08:10:17;;;;;;;3.20;0.40;;;9.30;99.90;;;;;;4935027;29;20035;-76
2022/03/14 08:12:51;;;;;;;1.42;0.40;;;9.40;99.90;;;;;;4935264;29;20377;-76
2022/03/14 08:15:19;;;;;;;2.35;0.57;;;9.40;99.90;;;;;;4918266;29;20051;-75
2022/03/14 08:17:44;;;;;;;2.28;0.60;;;9.40;99.90;;;;;;4935011;29;20062;-76
2022/03/14 08:20:10;;;;;;;2.08;0.30;;;9.50;99.90;;;;;;4917667;29;20490;-76
2022/03/14 08:22:36;;;;;;;2.08;0.50;;;9.50;99.90;;;;;;4934746;29;20042;-75
2022/03/14 08:25:02;;;;;;;1.58;0.50;;;9.50;99.90;;;;;;4917017;29;20469;-75
2022/03/14 08:27:28;;;;;;;1.45;0.30;;;9.50;99.90;;;;;;4918042;29;20480;-76
2022/03/14 08:29:54;;;;;;;1.27;0.40;;;9.50;99.90;;;;;;4934399;29;20031;-76
2022/03/14 08:32:22;;;;;;;4.60;0.70;;;9.50;99.90;;;;;;4917569;29;20035;-76
2022/03/14 08:34:49;;;;;;;3.70;0.50;;;9.50;99.90;;;;;;4934427;29;20043;-74
2022/03/14 08:37:15;;;;;;;3.53;0.50;;;9.60;99.90;;;;;;4916910;29;20024;-76
2022/03/14 08:39:41;;;;;;;1.50;0.40;;;9.70;99.90;;;;;;4934322;29;20042;-77
2022/03/14 08:42:08;;;;;;;2.25;0.70;;;9.70;99.90;;;;;;4933819;29;20106;-76
2022/03/14 08:44:34;;;;;;;1.48;0.57;;;9.70;99.90;;;;;;4918015;29;20119;-76
2022/03/14 08:46:59;;;;;;;2.20;0.60;;;9.60;99.90;;;;;;4915950;29;20147;-75
2022/03/14 08:49:25;;;;;;;2.65;0.50;;;9.60;99.90;;;;;;4917347;29;20516;-76
2022/03/14 08:51:51;;;;;;;2.42;0.50;;;9.60;99.90;;;;;;4917101;29;20496;-75
2022/03/14 08:54:16;;;;;;;5.75;0.80;;;9.60;99.90;;;;;;4917828;29;20028;-75
2022/03/14 08:56:42;;;;;;;5.25;0.50;;;9.70;99.90;;;;;;4934336;29;20028;-75
2022/03/14 08:59:10;;;;;;;2.40;0.43;;;9.80;99.90;;;;;;4933787;29;20036;-76
2022/03/14 09:01:35;;;;;;;2.17;0.90;;;9.80;99.90;;;;;;4917281;29;20036;-76
2022/03/14 09:04:01;;;;;;;3.10;0.55;;;9.80;99.90;;;;;;4917358;29;20036;-77
2022/03/14 09:06:28;;;;;;;2.60;0.65;;;9.80;99.90;;;;;;4917859;29;20023;-76
2022/03/14 09:08:54;;;;;;;0.55;0.43;;;9.80;99.90;;;;;;4917198;29;20056;-76
2022/03/14 09:11:19;;;;;;;2.95;0.65;;;9.80;99.90;;;;;;4917073;29;20070;-76
2022/03/14 09:13:45;;;;;;;4.45;0.52;;;9.80;99.90;;;;;;4907531;29;20020;-76
2022/03/14 09:16:11;;;;;;;5.43;0.52;;;9.80;99.90;;;;;;4923801;29;20035;-76
2022/03/14 09:18:37;;;;;;;4.95;0.60;;;9.80;99.90;;;;;;4907940;29;20481;-74
2022/03/14 09:21:03;;;;;;;2.90;0.50;;;9.90;99.90;;;;;;4909341;29;20023;-76
2022/03/14 09:23:29;;;;;;;1.48;0.35;;;9.90;99.90;;;;;;4907518;29;20076;-75
2022/03/14 09:25:56;;;;;;;2.95;0.52;;;10.00;99.90;;;;;;4907519;29;20023;-75
2022/03/14 09:28:21;;;;;;;2.03;0.40;;;10.10;99.90;;;;;;4926361;29;20043;-76
2022/03/14 09:30:47;;;;;;;3.67;0.50;;;10.10;99.90;;;;;;4911366;29;20067;-75
2022/03/14 09:33:13;;;;;;;2.97;0.70;;;10.10;99.90;;;;;;4912371;29;20114;-76
2022/03/14 09:35:39;;;;;;;2.67;0.50;;;10.20;99.90;;;;;;4911821;29;20024;-76
2022/03/14 09:38:04;;;;;;;2.08;0.60;;;10.20;99.90;;;;;;4915219;29;20469;-75
2022/03/14 09:40:31;;;;;;;4.00;0.55;;;10.30;99.90;;;;;;4918482;29;20043;-75
2022/03/14 09:42:59;;;;;;;3.55;1.00;;;10.30;99.90;;;;;;4911010;29;20044;-76
2022/03/14 09:45:26;;;;;;;6.32;1.17;;;10.40;99.90;;;;;;4914117;29;20062;-73
2022/03/14 09:48:02;;;;;;;4.75;0.68;;;10.40;99.90;;;;;;4912668;29;20115;-76
2022/03/14 09:50:34;;;;;;;2.88;0.73;;;10.40;99.90;;;;;;4912933;29;20410;-75
2022/03/14 09:53:03;;;;;;;5.07;1.10;;;10.40;99.90;;;;;;4914104;29;20035;-76
2022/03/14 09:55:29;;;;;;;4.82;0.70;;;10.50;99.90;;;;;;4913111;29;20038;-76
2022/03/14 09:57:55;;;;;;;2.40;0.63;;;10.70;99.90;;;;;;4933508;29;20115;-86
2022/03/14 10:00:21;;;;;;;2.00;0.70;;;11.00;99.90;;;;;;4938519;29;20115;-84
2022/03/14 10:02:47;;;;;;;4.47;0.68;;;11.10;99.40;;;;;;4938374;29;20043;-78
2022/03/14 10:05:14;;;;;;;2.90;0.80;;;11.20;99.00;;;;;;4919974;29;20030;-75
2022/03/14 10:07:45;;;;;;;2.95;0.60;;;11.30;99.40;;;;;;4937775;29;20024;-79
2022/03/14 10:10:12;;;;;;;3.63;0.50;;;11.50;98.60;;;;;;4920302;29;20138;-80
2022/03/14 10:12:39;;;;;;;1.88;0.60;;;11.60;98.50;;;;;;4937807;29;20028;-78
2022/03/14 10:15:06;;;;;;;2.75;0.80;;;11.60;98.20;;;;;;4919902;29;20483;-80
2022/03/14 10:17:32;;;;;;;5.20;0.70;;;11.70;97.80;;;;;;4937598;29;20038;-80
2022/03/14 10:20:00;;;;;;;3.70;0.70;;;11.70;97.90;;;;;;4920112;29;20036;-80
2022/03/14 10:22:36;;;;;;;2.03;0.63;;;11.70;98.20;;;;;;4920371;29;20028;-79
2022/03/14 10:25:11;;;;;;;5.93;0.88;;;11.70;98.10;;;;;;4920349;29;20027;-82
2022/03/14 10:27:45;;;;;;;3.75;1.15;;;11.80;97.60;;;;;;4920655;29;20394;-80
2022/03/14 10:30:31;;;;;;;2.95;0.73;;;11.80;97.50;;;;;;4936727;29;20031;-77
2022/03/14 10:33:07;;;;;;;2.53;0.70;;;11.80;97.70;;;;;;4915688;29;20042;-78
2022/03/14 10:35:34;;;;;;;3.42;0.82;;;11.80;97.50;;;;;;4912302;29;20602;-77
2022/03/14 10:38:04;;;;;;;4.10;0.60;;;11.70;97.50;;;;;;4927051;29;20024;-77
2022/03/14 10:40:35;;;;;;;2.97;0.70;;;11.70;97.40;;;;;;4914859;29;20031;-78
2022/03/14 10:43:01;;;;;;;2.97;0.68;;;11.70;96.70;;;;;;4926225;29;20480;-79
2022/03/14 10:45:29;;;;;;;4.95;0.95;;;11.70;96.60;;;;;;4937201;29;20070;-79
2022/03/14 10:47:57;;;;;;;4.30;0.70;;;11.70;97.00;;;;;;4928166;29;20042;-79
2022/03/14 10:50:39;;;;;;;2.78;0.60;;;11.80;96.40;;;;;;4919793;29;20397;-80
2022/03/14 10:53:19;;;;;;;3.55;0.60;;;12.00;95.10;;;;;;4904055;29;20031;-79
2022/03/14 10:55:58;;;;;;;4.20;0.50;;;12.20;95.20;;;;;;4919762;29;20498;-79
2022/03/14 10:58:33;;;;;;;2.40;0.38;;;12.40;92.70;;;;;;4915924;29;20035;-79
2022/03/14 11:01:06;;;;;;;2.90;0.70;;;12.50;93.00;;;;;;4931186;29;20031;-77
2022/03/14 11:03:34;;;;;;;2.92;0.50;;;12.60;92.60;;;;;;4919585;29;20397;-78
2022/03/14 11:06:05;;;;;;;1.88;0.47;;;12.60;92.30;;;;;;4935525;29;20051;-78
2022/03/14 11:08:42;;;;;;;6.22;0.68;;;12.70;92.00;;;;;;4919309;29;20028;-78
2022/03/14 11:11:13;;;;;;;3.50;0.45;;;12.70;91.70;;;;;;4907208;29;20036;-78
2022/03/14 11:13:43;;;;;;;3.15;0.50;;;12.60;91.50;;;;;;4919470;29;20036;-78
2022/03/14 11:16:26;;;;;;;2.50;0.45;;;12.60;91.20;;;;;;4933336;29;20023;-78
2022/03/14 11:18:53;;;;;;;3.05;0.55;;;12.80;91.20;;;;;;4902591;29;20449;-81
2022/03/14 11:21:24;;;;;;;3.65;0.70;;;12.80;91.90;;;;;;4919866;29;20027;-79
2022/03/14 11:23:51;;;;;;;2.70;0.70;;;12.90;92.10;;;;;;4918981;29;20469;-79
2022/03/14 11:26:19;;;;;;;3.75;0.50;;;13.00;86.80;;;;;;4919770;29;20036;-80
2022/03/14 11:28:47;;;;;;;3.72;0.50;;;12.90;88.50;;;;;;4936842;29;20480;-79
2022/03/14 11:31:14;;;;;;;4.00;0.50;;;12.70;88.20;;;;;;4925155;29;20476;-79
2022/03/14 11:33:43;;;;;;;2.83;0.65;;;12.70;89.60;;;;;;4905554;29;20130;-78
2022/03/14 11:36:09;;;;;;;1.67;0.50;;;12.80;90.60;;;;;;4924871;29;20024;-79
2022/03/14 11:38:35;;;;;;;1.92;0.60;;;13.00;91.70;;;;;;4915759;29;20066;-79
2022/03/14 11:41:02;;;;;;;2.70;0.63;;;13.20;90.40;;;;;;4919646;29;20023;-80
2022/03/14 11:43:29;;;;;;;2.20;0.65;;;13.40;90.30;;;;;;4934932;29;20186;-79
2022/03/14 11:45:58;;;;;;;3.25;0.63;;;13.40;83.10;;;;;;4913165;29;20027;-79
2022/03/14 11:48:28;;;;;;;2.30;0.50;;;13.50;80.60;;;;;;4920131;29;20095;-79
2022/03/14 11:51:02;;;;;;;1.90;0.40;;;13.60;77.80;;;;;;4935649;29;20477;-79
2022/03/14 11:53:30;;;;;;;2.97;0.20;;;13.50;71.80;;;;;;4932320;29;20028;-80
2022/03/14 11:56:01;;;;;;;2.45;0.50;;;13.40;72.30;;;;;;4918008;29;20027;-78
2022/03/14 11:58:28;;;;;;;2.10;0.45;;;13.50;72.40;;;;;;4918824;29;20058;-78
2022/03/14 12:00:54;;;;;;;2.60;0.60;;;13.50;71.60;;;;;;4923027;29;20545;-79
2022/03/14 12:03:37;;;;;;;4.47;0.70;;;13.60;70.60;;;;;;4913968;29;20032;-79
2022/03/14 12:06:04;;;;;;;0.90;0.30;;;13.50;68.10;;;;;;4919450;29;20023;-79
2022/03/14 12:08:32;;;;;;;2.00;0.60;;;13.40;70.50;;;;;;4936638;29;20027;-81
2022/03/14 12:11:37;;;;;;;3.13;0.50;;;13.40;70.70;;;;;;4919796;29;20055;-79
2022/03/14 12:14:04;;;;;;;6.05;0.85;;;13.40;70.30;;;;;;4919727;29;20039;-80
2022/03/14 12:16:42;;;;;;;3.97;0.73;;;13.50;71.90;;;;;;4920111;29;20091;-78
2022/03/14 12:19:29;;;;;;;3.45;0.47;;;13.60;71.40;;;;;;4903595;29;20091;-77
2022/03/14 12:21:55;;;;;;;2.17;0.40;;;13.60;70.90;;;;;;4918660;29;20028;-77
2022/03/14 12:24:42;;;;;;;1.50;0.30;;;13.70;70.90;;;;;;4935007;29;20484;-79
2022/03/14 12:27:35;;;;;;;3.05;0.80;;;13.80;70.20;;;;;;4903330;29;20047;-79
2022/03/14 12:30:06;;;;;;;3.67;0.75;;;14.20;69.60;;;;;;4915677;29;20086;-78
2022/03/14 12:32:38;;;;;;;6.32;0.90;;;14.60;69.20;;;;;;4918184;29;20110;-78
2022/03/14 12:35:21;;;;;;;4.43;0.50;;;14.60;66.10;;;;;;4902074;29;20053;-82
2022/03/14 12:37:52;;;;;;;4.55;0.85;;;14.80;64.40;;;;;;4917068;29;20068;-79
2022/03/14 12:40:23;;;;;;;3.28;0.70;;;14.90;63.70;;;;;;4918096;29;20492;-80
2022/03/14 12:42:55;;;;;;;1.65;0.57;;;14.90;63.40;;;;;;4935143;29;20039;-78
2022/03/14 12:45:47;;;;;;;1.48;0.43;;;14.90;63.70;;;;;;4918579;29;20032;-79
2022/03/14 12:48:16;;;;;;;;;;;15.10;62.20;;;;;;4917965;29;20477;-80
2022/03/14 12:50:50;;;;;;;5.60;0.77;;;15.00;62.50;;;;;;4917583;29;19970;-79
2022/03/14 12:53:37;;;;;;;3.95;0.75;;;15.20;63.60;;;;;;4935111;29;20028;-80
2022/03/14 12:56:11;;;;;;;3.03;0.32;;;15.40;61.60;;;;;;4934083;29;20047;-77